Time;durP1;ratioP1;P1;durP2;ratioP2;P2;SDS_P1;SDS_P2;PMS_P1;PMS_P2;Temp;Humidity;BMP_temperature;BMP_pressure;BME280_temperature;BME280_humidity;BME280_pressure;Samples;Min_cycle;Max_cycle;Signal;HPM_P1;HPM_P2
2024/01/03 00:01:02;;;;;;;;;;;8.60;99.90;;;;;;5105468;28;19994;-71
2024/01/03 00:03:31;;;;;;;;;;;8.60;99.90;;;;;;5103549;28;19927;-72
2024/01/03 00:05:59;;;;;;;;;;;8.60;99.90;;;;;;5105265;28;19930;-71
2024/01/03 00:08:27;;;;;;;;;;;8.70;99.90;;;;;;5106855;28;19970;-69
2024/01/03 00:10:55;;;;;;;;;;;8.60;99.90;;;;;;5102873;28;19964;-71
2024/01/03 00:13:45;;;;;;;;;;;8.70;99.90;;;;;;5105859;28;19920;-71
2024/01/03 00:16:21;;;;;;;;;;;8.70;99.90;;;;;;5099947;28;20011;-71
2024/01/03 00:18:50;;;;;;;;;;;8.60;99.90;;;;;;5113774;28;20353;-72
2024/01/03 00:21:22;;;;;;;;;;;8.70;99.90;;;;;;5098000;28;19927;-71
2024/01/03 00:23:50;;;;;;;;;;;8.60;99.90;;;;;;5101616;28;20210;-71
2024/01/03 00:26:17;;;;;;;;;;;8.60;99.90;;;;;;5097581;28;20169;-71
2024/01/03 00:28:43;;;;;;;;;;;8.60;99.90;;;;;;5103426;28;19955;-71
2024/01/03 00:31:10;;;;;;;;;;;8.60;99.90;;;;;;5112630;28;19947;-71
2024/01/03 00:33:40;;;;;;;;;;;8.60;99.90;;;;;;5105966;28;19951;-71
2024/01/03 00:36:08;;;;;;;;;;;8.60;99.90;;;;;;5109794;28;20164;-71
2024/01/03 00:38:37;;;;;;;;;;;8.60;99.90;;;;;;5112133;28;19957;-72
2024/01/03 00:41:04;;;;;;;;;;;8.60;99.90;;;;;;5103884;28;19927;-71
2024/01/03 00:43:31;;;;;;;;;;;8.50;99.90;;;;;;5103906;28;19920;-71
2024/01/03 00:45:58;;;;;;;;;;;8.60;99.90;;;;;;5109392;28;19920;-71
2024/01/03 00:48:24;;;;;;;;;;;8.50;99.90;;;;;;5103526;28;19955;-71
2024/01/03 00:50:51;;;;;;;;;;;8.60;99.90;;;;;;5110052;28;20173;-73
2024/01/03 00:53:17;;;;;;;;;;;8.60;99.90;;;;;;5103001;28;19920;-71
2024/01/03 00:55:45;;;;;;;;;;;8.60;99.90;;;;;;5101723;28;19955;-70
2024/01/03 00:58:13;;;;;;;;;;;8.70;99.90;;;;;;5102351;28;19979;-71
2024/01/03 01:00:39;;;;;;;;;;;8.70;99.90;;;;;;5108261;28;19959;-71
2024/01/03 01:03:06;;;;;;;;;;;8.60;99.90;;;;;;5104651;28;19927;-70
2024/01/03 01:05:33;;;;;;;;;;;8.70;99.90;;;;;;5105194;28;19987;-71
2024/01/03 01:07:59;;;;;;;;;;;8.70;99.90;;;;;;5114390;28;19951;-70
2024/01/03 01:10:26;;;;;;;;;;;8.70;99.90;;;;;;5107585;28;19983;-71
2024/01/03 01:12:55;;;;;;;;;;;8.70;99.90;;;;;;5106809;28;19920;-71
2024/01/03 01:15:22;;;;;;;;;;;8.70;99.90;;;;;;5110634;28;19920;-71
2024/01/03 01:17:48;;;;;;;;;;;8.80;99.90;;;;;;5104688;28;20109;-71
2024/01/03 01:20:15;;;;;;;;;;;8.70;99.90;;;;;;5105137;28;19984;-71
2024/01/03 01:22:41;;;;;;;;;;;8.70;99.90;;;;;;5090104;28;20226;-70
2024/01/03 01:25:08;;;;;;;;;;;8.70;99.90;;;;;;5100759;28;19983;-72
2024/01/03 01:27:35;;;;;;;;;;;8.70;99.90;;;;;;5108328;28;19983;-71
2024/01/03 01:30:03;;;;;;;;;;;8.70;99.90;;;;;;5107048;28;20353;-71
2024/01/03 01:32:30;;;;;;;;;;;8.70;99.90;;;;;;5105537;28;20162;-71
2024/01/03 01:34:57;;;;;;;;;;;8.70;99.90;;;;;;5108374;28;19920;-71
2024/01/03 01:37:23;;;;;;;;;;;8.70;99.90;;;;;;5121563;28;20169;-71
2024/01/03 01:39:50;;;;;;;;;;;8.60;99.90;;;;;;5107897;28;19927;-71
2024/01/03 01:42:16;;;;;;;;;;;8.60;99.90;;;;;;5110748;28;20300;-71
2024/01/03 01:44:43;;;;;;;;;;;8.50;99.90;;;;;;5107012;28;19995;-71
2024/01/03 01:47:12;;;;;;;;;;;8.50;99.90;;;;;;5106404;28;19920;-73
2024/01/03 01:49:40;;;;;;;;;;;8.40;99.90;;;;;;5105481;28;19920;-71
2024/01/03 01:52:07;;;;;;;;;;;8.40;99.90;;;;;;5107085;28;19926;-70
2024/01/03 01:54:34;;;;;;;;;;;8.30;99.90;;;;;;5092643;28;19952;-71
2024/01/03 01:57:00;;;;;;;;;;;8.30;99.90;;;;;;5100852;28;19967;-70
2024/01/03 01:59:27;;;;;;;;;;;8.20;99.90;;;;;;5105921;28;19979;-71
2024/01/03 02:01:54;;;;;;;;;;;8.30;99.90;;;;;;5105329;28;19938;-71
2024/01/03 02:04:22;;;;;;;;;;;8.20;99.90;;;;;;5112360;28;20210;-71
2024/01/03 02:06:49;;;;;;;;;;;8.20;99.90;;;;;;5111991;28;19962;-71
2024/01/03 02:09:16;;;;;;;;;;;8.10;99.90;;;;;;5106140;28;19977;-72
2024/01/03 02:11:46;;;;;;;;;;;8.10;99.90;;;;;;5105512;28;19928;-71
2024/01/03 02:14:12;;;;;;;;;;;8.10;99.90;;;;;;5107370;28;19983;-71
2024/01/03 02:16:39;;;;;;;;;;;8.10;99.90;;;;;;5104846;28;19939;-71
2024/01/03 02:19:05;;;;;;;;;;;8.10;99.90;;;;;;5104426;28;20132;-72
2024/01/03 02:21:33;;;;;;;;;;;8.10;99.90;;;;;;5096554;28;19927;-73
2024/01/03 02:24:00;;;;;;;;;;;8.10;99.90;;;;;;5097555;28;19962;-70
2024/01/03 02:26:27;;;;;;;;;;;8.10;99.90;;;;;;5106742;28;19974;-71
2024/01/03 02:28:53;;;;;;;;;;;8.10;99.90;;;;;;5110688;28;19983;-71
2024/01/03 02:31:20;;;;;;;;;;;8.10;99.90;;;;;;5105042;28;19926;-70
2024/01/03 02:33:46;;;;;;;;;;;8.10;99.90;;;;;;5103582;28;19991;-71
2024/01/03 02:36:13;;;;;;;;;;;8.10;99.90;;;;;;5106386;28;19983;-71
2024/01/03 02:38:43;;;;;;;;;;;8.10;99.90;;;;;;5107798;28;19962;-71
2024/01/03 02:41:09;;;;;;;;;;;8.10;99.90;;;;;;5110799;28;19955;-71
2024/01/03 02:43:36;;;;;;;;;;;8.10;99.90;;;;;;5101803;28;19979;-71
2024/01/03 02:46:02;;;;;;;;;;;8.20;99.90;;;;;;5105839;28;20041;-71
2024/01/03 02:48:29;;;;;;;;;;;8.20;99.90;;;;;;5105237;28;19920;-72
2024/01/03 02:50:55;;;;;;;;;;;8.20;99.90;;;;;;5101510;28;19987;-71
2024/01/03 02:53:22;;;;;;;;;;;8.20;99.90;;;;;;5093477;28;19987;-70
2024/01/03 02:55:50;;;;;;;;;;;8.30;99.90;;;;;;5104682;28;19951;-72
2024/01/03 02:58:17;;;;;;;;;;;8.30;99.90;;;;;;5105670;28;20252;-71
2024/01/03 03:00:43;;;;;;;;;;;8.30;99.90;;;;;;5104331;28;19979;-71
2024/01/03 03:03:10;;;;;;;;;;;8.40;99.90;;;;;;5105020;28;19920;-71
2024/01/03 03:05:36;;;;;;;;;;;8.40;99.90;;;;;;5104882;28;20169;-71
2024/01/03 03:08:04;;;;;;;;;;;8.40;99.90;;;;;;5105142;28;19928;-71
2024/01/03 03:10:30;;;;;;;;;;;8.40;99.90;;;;;;5105167;28;19987;-73
2024/01/03 03:12:58;;;;;;;;;;;8.40;99.90;;;;;;5115596;28;19927;-71
2024/01/03 03:15:25;;;;;;;;;;;8.40;99.90;;;;;;5097684;28;19927;-71
2024/01/03 03:17:52;;;;;;;;;;;8.40;99.90;;;;;;5102050;28;19926;-72
2024/01/03 03:20:18;;;;;;;;;;;8.40;99.90;;;;;;5094404;28;20238;-73
2024/01/03 03:22:45;;;;;;;;;;;8.50;99.90;;;;;;5100356;28;19927;-71
2024/01/03 03:25:11;;;;;;;;;;;8.50;99.90;;;;;;5108368;28;20293;-71
2024/01/03 03:27:38;;;;;;;;;;;8.50;99.90;;;;;;5101754;28;20409;-73
2024/01/03 03:30:07;;;;;;;;;;;8.50;99.90;;;;;;5101975;28;20233;-71
2024/01/03 03:32:34;;;;;;;;;;;8.40;99.90;;;;;;5091847;28;19983;-70
2024/01/03 03:35:00;;;;;;;;;;;8.40;99.90;;;;;;5104130;28;19952;-72
2024/01/03 03:37:27;;;;;;;;;;;8.50;99.90;;;;;;5113322;28;19983;-71
2024/01/03 03:39:53;;;;;;;;;;;8.40;99.90;;;;;;5103420;28;20191;-71
2024/01/03 03:42:22;;;;;;;;;;;8.40;99.90;;;;;;5104786;28;19987;-71
2024/01/03 03:44:48;;;;;;;;;;;8.40;99.90;;;;;;5103716;28;19987;-71
2024/01/03 03:47:16;;;;;;;;;;;8.40;99.90;;;;;;5106838;28;19942;-70
2024/01/03 03:49:43;;;;;;;;;;;8.40;99.90;;;;;;5098866;28;19955;-71
2024/01/03 03:52:10;;;;;;;;;;;8.30;99.90;;;;;;5102675;28;19927;-73
2024/01/03 03:54:36;;;;;;;;;;;8.30;99.90;;;;;;5104001;28;20284;-71
2024/01/03 03:57:03;;;;;;;;;;;8.30;99.90;;;;;;5102533;28;19928;-70
2024/01/03 03:59:30;;;;;;;;;;;8.30;99.90;;;;;;5103650;28;19932;-70
2024/01/03 04:01:56;;;;;;;;;;;8.30;99.90;;;;;;5104087;28;19983;-71
2024/01/03 04:04:24;;;;;;;;;;;8.30;99.90;;;;;;5103545;28;19931;-71
2024/01/03 04:06:51;;;;;;;;;;;8.20;99.90;;;;;;5102296;28;19996;-71
2024/01/03 04:09:19;;;;;;;;;;;8.20;99.90;;;;;;5103202;28;19919;-71
2024/01/03 04:11:45;;;;;;;;;;;8.20;99.90;;;;;;5101710;28;19928;-71
2024/01/03 04:14:12;;;;;;;;;;;8.30;99.90;;;;;;5100895;28;20098;-71
2024/01/03 04:16:39;;;;;;;;;;;8.30;99.90;;;;;;5102573;28;19991;-72
2024/01/03 04:19:05;;;;;;;;;;;8.30;99.90;;;;;;5104108;28;20162;-71
2024/01/03 04:21:33;;;;;;;;;;;8.30;99.90;;;;;;5103650;28;19928;-71
2024/01/03 04:24:00;;;;;;;;;;;8.30;99.90;;;;;;5101785;28;19983;-71
2024/01/03 04:26:28;;;;;;;;;;;8.30;99.90;;;;;;5102700;28;19926;-73
2024/01/03 04:28:55;;;;;;;;;;;8.40;99.90;;;;;;5101965;28;19951;-71
2024/01/03 04:31:21;;;;;;;;;;;8.40;99.90;;;;;;5103445;28;19920;-71
2024/01/03 04:33:48;;;;;;;;;;;8.50;99.90;;;;;;5101829;28;19990;-72
2024/01/03 04:36:15;;;;;;;;;;;8.40;99.90;;;;;;5105552;28;19920;-70
2024/01/03 04:38:43;;;;;;;;;;;8.50;99.90;;;;;;5102089;28;20329;-71
2024/01/03 04:41:10;;;;;;;;;;;8.50;99.90;;;;;;5102634;28;19971;-71
2024/01/03 04:43:36;;;;;;;;;;;8.50;99.90;;;;;;5104634;28;19920;-71
2024/01/03 04:46:03;;;;;;;;;;;8.40;99.90;;;;;;5103989;28;19996;-71
2024/01/03 04:48:30;;;;;;;;;;;8.40;99.90;;;;;;5102493;28;19962;-71
2024/01/03 04:50:56;;;;;;;;;;;8.50;99.90;;;;;;5100830;28;20053;-71
2024/01/03 04:53:23;;;;;;;;;;;8.40;99.90;;;;;;5099724;28;19920;-72
2024/01/03 04:55:51;;;;;;;;;;;8.40;99.90;;;;;;5100194;28;19942;-73
2024/01/03 04:58:18;;;;;;;;;;;8.50;99.90;;;;;;5092932;28;19979;-71
2024/01/03 05:00:45;;;;;;;;;;;8.50;99.90;;;;;;5104507;28;19983;-71
2024/01/03 05:03:12;;;;;;;;;;;8.50;99.90;;;;;;5105341;28;20232;-71
2024/01/03 05:05:39;;;;;;;;;;;8.50;99.90;;;;;;5107772;28;19920;-72
2024/01/03 05:08:05;;;;;;;;;;;8.40;99.90;;;;;;5105992;28;19983;-73
2024/01/03 05:10:32;;;;;;;;;;;8.40;99.90;;;;;;5108638;28;19979;-71
2024/01/03 05:13:00;;;;;;;;;;;8.40;99.90;;;;;;5103343;28;19952;-72
2024/01/03 05:15:27;;;;;;;;;;;8.50;99.90;;;;;;5105964;28;20233;-70
2024/01/03 05:17:53;;;;;;;;;;;8.40;99.90;;;;;;5116656;28;19983;-72
2024/01/03 05:20:20;;;;;;;;;;;8.40;99.90;;;;;;5111036;28;20173;-71
2024/01/03 05:22:46;;;;;;;;;;;8.40;99.90;;;;;;5104765;28;19991;-71
2024/01/03 05:25:13;;;;;;;;;;;8.40;99.90;;;;;;5101284;28;19920;-70
2024/01/03 05:27:40;;;;;;;;;;;8.40;99.90;;;;;;5109100;28;19926;-73
2024/01/03 05:30:08;;;;;;;;;;;8.40;99.90;;;;;;5102883;28;19987;-71
2024/01/03 05:32:35;;;;;;;;;;;8.50;99.90;;;;;;5101040;28;19979;-71
2024/01/03 05:35:01;;;;;;;;;;;8.50;99.90;;;;;;5100098;28;19927;-73
2024/01/03 05:37:28;;;;;;;;;;;8.50;99.90;;;;;;5107235;28;19951;-73
2024/01/03 05:39:55;;;;;;;;;;;8.50;99.90;;;;;;5102902;28;20218;-72
2024/01/03 05:42:23;;;;;;;;;;;8.50;99.90;;;;;;5106239;28;19920;-70
2024/01/03 05:44:49;;;;;;;;;;;8.50;99.90;;;;;;5102457;28;19974;-73
2024/01/03 05:47:17;;;;;;;;;;;8.50;99.90;;;;;;5111770;28;19926;-70
2024/01/03 05:49:44;;;;;;;;;;;8.50;99.90;;;;;;5106421;28;19955;-70
2024/01/03 05:52:10;;;;;;;;;;;8.50;99.90;;;;;;5105076;28;20210;-71
2024/01/03 05:54:37;;;;;;;;;;;8.50;99.90;;;;;;5105420;28;19955;-71
2024/01/03 05:57:04;;;;;;;;;;;8.50;99.90;;;;;;5106847;28;19982;-70
2024/01/03 05:59:31;;;;;;;;;;;8.50;99.90;;;;;;5111606;28;19973;-71
2024/01/03 06:01:58;;;;;;;;;;;8.50;99.90;;;;;;5106737;28;21237;-74
2024/01/03 06:04:26;;;;;;;;;;;8.50;99.90;;;;;;5098677;28;19920;-72
2024/01/03 06:06:52;;;;;;;;;;;8.50;99.90;;;;;;5105539;28;19920;-71
2024/01/03 06:09:19;;;;;;;;;;;8.50;99.90;;;;;;5106650;28;19920;-72
2024/01/03 06:11:45;;;;;;;;;;;8.60;99.90;;;;;;5111317;28;19927;-71
2024/01/03 06:14:12;;;;;;;;;;;8.60;99.90;;;;;;5111489;28;20173;-72
2024/01/03 06:16:39;;;;;;;;;;;8.60;99.90;;;;;;5111193;28;19954;-71
2024/01/03 06:19:05;;;;;;;;;;;8.60;99.90;;;;;;5103841;28;20281;-71
2024/01/03 06:21:33;;;;;;;;;;;8.60;99.90;;;;;;5096801;28;19978;-72
2024/01/03 06:24:00;;;;;;;;;;;8.60;99.90;;;;;;5104801;28;20118;-72
2024/01/03 06:26:30;;;;;;;;;;;8.60;99.90;;;;;;5104615;28;20236;-71
2024/01/03 06:28:57;;;;;;;;;;;8.60;99.90;;;;;;5106611;28;19928;-71
2024/01/03 06:31:23;;;;;;;;;;;8.50;99.90;;;;;;5107091;28;19959;-71
2024/01/03 06:33:50;;;;;;;;;;;8.40;99.90;;;;;;5102783;28;19995;-71
2024/01/03 06:36:16;;;;;;;;;;;8.40;99.90;;;;;;5103396;28;19932;-71
2024/01/03 06:38:44;;;;;;;;;;;8.40;99.90;;;;;;5106019;28;19920;-71
2024/01/03 06:41:11;;;;;;;;;;;8.30;99.90;;;;;;5107463;28;19947;-72
2024/01/03 06:43:38;;;;;;;;;;;8.30;99.90;;;;;;5105940;28;19982;-72
2024/01/03 06:46:05;;;;;;;;;;;8.20;99.90;;;;;;5106155;28;21119;-71
2024/01/03 06:48:31;;;;;;;;;;;8.20;99.90;;;;;;5103661;28;19924;-72
2024/01/03 06:51:02;;;;;;;;;;;8.20;99.90;;;;;;5106449;28;19979;-72
2024/01/03 06:53:28;;;;;;;;;;;8.10;99.90;;;;;;5104872;28;19920;-72
2024/01/03 06:55:56;;;;;;;;;;;8.10;99.90;;;;;;5106191;28;20273;-71
2024/01/03 06:58:23;;;;;;;;;;;8.00;99.90;;;;;;5104024;28;19966;-71
2024/01/03 07:00:50;;;;;;;;;;;8.00;99.90;;;;;;5105264;28;19987;-71
2024/01/03 07:03:16;;;;;;;;;;;7.90;99.90;;;;;;5105623;28;19927;-72
2024/01/03 07:05:43;;;;;;;;;;;7.90;99.90;;;;;;5105345;28;19939;-73
2024/01/03 07:08:10;;;;;;;;;;;7.90;99.90;;;;;;5105605;28;19969;-71
2024/01/03 07:10:36;;;;;;;;;;;7.90;99.90;;;;;;5105418;28;19924;-71
2024/01/03 07:13:05;;;;;;;;;;;7.80;99.90;;;;;;5113179;28;19927;-71
2024/01/03 07:15:31;;;;;;;;;;;7.70;99.90;;;;;;5108523;28;20280;-71
2024/01/03 07:17:59;;;;;;;;;;;7.70;99.90;;;;;;5103522;28;19928;-71
2024/01/03 07:20:26;;;;;;;;;;;7.70;99.90;;;;;;5104399;28;19983;-73
2024/01/03 07:22:52;;;;;;;;;;;7.70;99.90;;;;;;5096037;28;19956;-71
2024/01/03 07:25:21;;;;;;;;;;;7.80;99.90;;;;;;5103641;28;20283;-71
2024/01/03 07:27:48;;;;;;;;;;;7.90;99.90;;;;;;5110494;28;19958;-73
2024/01/03 07:30:16;;;;;;;;;;;7.90;99.90;;;;;;5096666;28;19988;-71
2024/01/03 07:32:43;;;;;;;;;;;7.90;99.90;;;;;;5110950;28;19962;-71
2024/01/03 07:35:09;;;;;;;;;;;7.90;99.90;;;;;;5109855;28;20167;-71
2024/01/03 07:37:36;;;;;;;;;;;7.90;99.90;;;;;;5103428;28;20172;-73
2024/01/03 07:40:03;;;;;;;;;;;8.00;99.90;;;;;;5104078;28;19926;-71
2024/01/03 07:42:29;;;;;;;;;;;8.00;99.90;;;;;;5102746;28;19947;-71
2024/01/03 07:44:56;;;;;;;;;;;8.10;99.90;;;;;;5102895;28;19987;-70
2024/01/03 07:47:24;;;;;;;;;;;8.10;99.90;;;;;;5105742;28;19920;-72
2024/01/03 07:49:50;;;;;;;;;;;8.00;99.90;;;;;;5101372;28;19947;-71
2024/01/03 07:52:17;;;;;;;;;;;8.00;99.90;;;;;;5104593;28;19920;-71
2024/01/03 07:54:43;;;;;;;;;;;8.00;99.90;;;;;;5101024;28;20003;-72
2024/01/03 07:57:10;;;;;;;;;;;8.00;99.90;;;;;;5105536;28;19951;-71
2024/01/03 07:59:40;;;;;;;;;;;8.00;99.90;;;;;;5103385;28;19920;-74
2024/01/03 08:02:07;;;;;;;;;;;8.00;99.90;;;;;;5095142;28;20217;-71
2024/01/03 08:04:35;;;;;;;;;;;7.90;99.90;;;;;;5105207;28;19944;-71
2024/01/03 08:07:01;;;;;;;;;;;7.90;99.90;;;;;;5096306;28;19954;-72
2024/01/03 08:09:28;;;;;;;;;;;7.90;99.90;;;;;;5101987;28;19991;-71
2024/01/03 08:11:54;;;;;;;;;;;7.90;99.90;;;;;;5104435;28;19928;-71
2024/01/03 08:14:21;;;;;;;;;;;7.80;99.90;;;;;;5103723;28;19990;-71
2024/01/03 08:16:48;;;;;;;;;;;7.80;99.90;;;;;;5106154;28;19955;-72
2024/01/03 08:19:15;;;;;;;;;;;7.80;99.90;;;;;;5103845;28;20217;-71
2024/01/03 08:21:43;;;;;;;;;;;7.90;99.90;;;;;;5103449;28;19927;-73
2024/01/03 08:24:09;;;;;;;;;;;7.90;99.90;;;;;;5102169;28;19956;-71
2024/01/03 08:26:36;;;;;;;;;;;7.90;99.90;;;;;;5109313;28;19942;-71
2024/01/03 08:29:03;;;;;;;;;;;7.90;99.90;;;;;;5111566;28;19924;-71
2024/01/03 08:31:29;;;;;;;;;;;7.90;99.90;;;;;;5102919;28;19929;-71
2024/01/03 08:33:56;;;;;;;;;;;7.90;99.90;;;;;;5103101;28;20007;-71
2024/01/03 08:36:23;;;;;;;;;;;8.00;99.90;;;;;;5107346;28;19924;-71
2024/01/03 08:38:51;;;;;;;;;;;7.90;99.90;;;;;;5103652;28;19959;-71
2024/01/03 08:41:18;;;;;;;;;;;8.00;99.90;;;;;;5100156;28;19988;-72
2024/01/03 08:43:45;;;;;;;;;;;8.00;99.90;;;;;;5101800;28;19948;-72
2024/01/03 08:46:12;;;;;;;;;;;8.10;99.90;;;;;;5103146;28;20524;-70
2024/01/03 08:48:40;;;;;;;;;;;8.10;99.90;;;;;;5104143;28;19967;-75
2024/01/03 08:51:11;;;;;;;;;;;8.20;99.90;;;;;;5095568;28;19926;-73
2024/01/03 08:53:37;;;;;;;;;;;8.20;99.90;;;;;;5101465;28;19983;-70
2024/01/03 08:56:11;;;;;;;;;;;8.30;99.90;;;;;;5101858;28;19947;-70
2024/01/03 08:58:38;;;;;;;;;;;8.40;99.90;;;;;;5102364;28;19944;-70
2024/01/03 09:01:05;;;;;;;;;;;8.40;99.90;;;;;;5101256;28;20198;-69
2024/01/03 09:03:31;;;;;;;;;;;8.40;99.90;;;;;;5098785;28;19928;-70
2024/01/03 09:05:58;;;;;;;;;;;8.50;99.90;;;;;;5113626;28;19920;-70
2024/01/03 09:08:24;;;;;;;;;;;8.60;99.90;;;;;;5102336;28;19988;-71
2024/01/03 09:10:51;;;;;;;;;;;8.70;99.90;;;;;;5102510;28;19987;-70
2024/01/03 09:13:19;;;;;;;;;;;8.70;99.90;;;;;;5098759;28;19924;-70
2024/01/03 09:15:46;;;;;;;;;;;8.80;99.90;;;;;;5097066;28;19947;-69
2024/01/03 09:18:12;;;;;;;;;;;8.80;99.90;;;;;;5100339;28;19927;-70
2024/01/03 09:20:39;;;;;;;;;;;8.90;99.90;;;;;;5104554;28;20095;-70
2024/01/03 09:23:05;;;;;;;;;;;9.00;99.90;;;;;;5098678;28;19920;-70
2024/01/03 09:25:32;;;;;;;;;;;9.00;99.90;;;;;;5102614;28;19957;-70
2024/01/03 09:27:59;;;;;;;;;;;9.00;99.90;;;;;;5104549;28;19991;-71
2024/01/03 09:30:27;;;;;;;;;;;9.10;99.90;;;;;;5105222;28;19992;-69
2024/01/03 09:32:54;;;;;;;;;;;9.10;99.90;;;;;;5103330;28;19927;-70
2024/01/03 09:35:20;;;;;;;;;;;9.10;99.90;;;;;;5099163;28;19927;-71
2024/01/03 09:37:47;;;;;;;;;;;9.10;99.90;;;;;;5104233;28;19952;-71
2024/01/03 09:40:14;;;;;;;;;;;9.00;99.90;;;;;;5107768;28;20214;-70
2024/01/03 09:42:40;;;;;;;;;;;9.10;99.90;;;;;;5105311;28;20167;-71
2024/01/03 09:45:08;;;;;;;;;;;9.10;99.90;;;;;;5104593;28;19958;-70
2024/01/03 09:47:36;;;;;;;;;;;9.10;99.90;;;;;;5111526;28;19954;-71
2024/01/03 09:50:02;;;;;;;;;;;9.10;99.90;;;;;;5106475;28;19988;-71
2024/01/03 09:52:29;;;;;;;;;;;9.10;99.90;;;;;;5100542;28;19951;-72
2024/01/03 09:54:56;;;;;;;;;;;9.00;99.90;;;;;;5106704;28;19952;-71
2024/01/03 09:57:23;;;;;;;;;;;8.90;99.90;;;;;;5105376;28;19962;-71
2024/01/03 09:59:50;;;;;;;;;;;8.90;99.90;;;;;;5103109;28;20167;-72
2024/01/03 10:02:16;;;;;;;;;;;9.00;99.90;;;;;;5106413;28;20022;-71
2024/01/03 10:04:46;;;;;;;;;;;9.00;99.90;;;;;;5100326;28;20213;-70
2024/01/03 10:07:12;;;;;;;;;;;9.00;99.90;;;;;;5104646;28;19996;-71
2024/01/03 10:09:44;;;;;;;;;;;9.00;99.90;;;;;;5104465;28;19995;-71
2024/01/03 10:12:17;;;;;;;;;;;8.90;99.90;;;;;;5103780;28;20206;-71
2024/01/03 10:14:44;;;;;;;;;;;8.90;99.90;;;;;;5102917;28;19920;-70
2024/01/03 10:17:11;;;;;;;;;;;8.90;99.90;;;;;;5102446;28;19929;-70
2024/01/03 10:19:38;;;;;;;;;;;8.90;99.90;;;;;;5101851;28;19960;-70
2024/01/03 10:22:06;;;;;;;;;;;9.00;99.90;;;;;;5101828;28;19951;-71
2024/01/03 10:24:32;;;;;;;;;;;9.00;99.90;;;;;;5105904;28;19950;-71
2024/01/03 10:27:08;;;;;;;;;;;9.10;99.90;;;;;;5102362;28;19947;-71
2024/01/03 10:29:34;;;;;;;;;;;9.20;99.90;;;;;;5107104;28;19995;-71
2024/01/03 10:32:03;;;;;;;;;;;9.20;99.90;;;;;;5107269;28;19921;-71
2024/01/03 10:34:29;;;;;;;;;;;9.30;99.90;;;;;;5097923;28;19920;-71
2024/01/03 10:36:56;;;;;;;;;;;9.30;99.90;;;;;;5109080;28;20236;-72
2024/01/03 10:39:25;;;;;;;;;;;9.40;99.90;;;;;;5103643;28;19932;-72
2024/01/03 10:41:53;;;;;;;;;;;9.40;99.90;;;;;;5107445;28;19939;-70
2024/01/03 10:44:20;;;;;;;;;;;9.50;99.90;;;;;;5104651;28;19994;-71
2024/01/03 10:46:48;;;;;;;;;;;9.50;99.90;;;;;;5101243;28;19954;-70
2024/01/03 10:49:15;;;;;;;;;;;9.50;99.90;;;;;;5097825;28;20255;-71
2024/01/03 10:51:43;;;;;;;;;;;9.60;99.90;;;;;;5102058;28;19939;-70
2024/01/03 10:54:11;;;;;;;;;;;9.60;99.90;;;;;;5101838;28;19955;-70
2024/01/03 10:56:39;;;;;;;;;;;9.50;99.90;;;;;;5106503;28;19954;-70
2024/01/03 10:59:06;;;;;;;;;;;9.50;99.90;;;;;;5094340;28;20252;-70
2024/01/03 11:01:34;;;;;;;;;;;9.50;99.90;;;;;;5107240;28;20180;-70
2024/01/03 11:04:06;;;;;;;;;;;9.50;99.90;;;;;;5096431;28;19920;-70
2024/01/03 11:06:37;;;;;;;;;;;9.40;99.90;;;;;;5100888;28;19955;-70
2024/01/03 11:09:03;;;;;;;;;;;9.40;99.90;;;;;;5096075;28;19966;-69
2024/01/03 11:11:31;;;;;;;;;;;9.30;99.90;;;;;;5104269;28;20378;-69
2024/01/03 11:13:59;;;;;;;;;;;9.30;99.90;;;;;;5092826;28;20165;-70
2024/01/03 11:16:39;;;;;;;;;;;9.30;99.90;;;;;;5104148;28;19955;-69
2024/01/03 11:19:05;;;;;;;;;;;9.20;99.90;;;;;;5103899;28;19924;-70
2024/01/03 11:21:50;;;;;;;;;;;9.20;99.90;;;;;;5104021;28;19991;-71
2024/01/03 11:24:35;;;;;;;;;;;9.20;99.90;;;;;;5103114;28;20225;-71
2024/01/03 11:27:04;;;;;;;;;;;9.00;99.90;;;;;;5098954;28;19923;-71
2024/01/03 11:29:45;;;;;;;;;;;8.90;99.90;;;;;;5100836;28;19934;-71
2024/01/03 11:32:13;;;;;;;;;;;8.90;99.90;;;;;;5103177;28;19920;-71
2024/01/03 11:34:40;;;;;;;;;;;9.00;99.90;;;;;;5100439;28;20224;-74
2024/01/03 11:37:07;;;;;;;;;;;8.90;99.90;;;;;;5100991;28;19951;-73
2024/01/03 11:39:35;;;;;;;;;;;8.90;99.90;;;;;;5103117;28;19947;-72
2024/01/03 11:42:02;;;;;;;;;;;8.80;99.90;;;;;;5100110;28;19952;-72
2024/01/03 11:44:29;;;;;;;;;;;8.80;99.90;;;;;;5103017;28;20003;-72
2024/01/03 11:47:00;;;;;;;;;;;8.70;99.90;;;;;;5100392;28;20859;-71
2024/01/03 11:49:26;;;;;;;;;;;8.70;99.90;;;;;;5102378;28;19927;-72
2024/01/03 11:51:53;;;;;;;;;;;8.70;99.90;;;;;;5105580;28;19930;-72
2024/01/03 11:54:20;;;;;;;;;;;8.70;99.90;;;;;;5102832;28;20006;-71
2024/01/03 11:56:47;;;;;;;;;;;8.60;99.90;;;;;;5101216;28;21205;-71
2024/01/03 11:59:13;;;;;;;;;;;8.60;99.90;;;;;;5100441;28;19932;-72
2024/01/03 12:01:54;;;;;;;;;;;8.50;99.90;;;;;;5101621;28;19920;-71
2024/01/03 12:04:22;;;;;;;;;;;8.40;99.90;;;;;;5102962;28;19919;-72
2024/01/03 12:06:49;;;;;;;;;;;8.40;99.90;;;;;;5105232;28;20261;-71
2024/01/03 12:09:17;;;;;;;;;;;8.30;99.90;;;;;;5110674;28;19927;-71
2024/01/03 12:11:43;;;;;;;;;;;8.40;99.90;;;;;;5109937;28;19960;-73
2024/01/03 12:14:10;;;;;;;;;;;8.30;99.90;;;;;;5105466;28;19958;-70
2024/01/03 12:16:45;;;;;;;;;;;8.30;99.90;;;;;;5101211;28;20017;-70
2024/01/03 12:19:21;;;;;;;;;;;8.30;99.90;;;;;;5107950;28;19944;-72
2024/01/03 12:21:54;;;;;;;;;;;8.30;99.90;;;;;;5110775;28;19991;-71
2024/01/03 12:24:21;;;;;;;;;;;8.20;99.90;;;;;;5088979;28;19960;-71
2024/01/03 12:26:48;;;;;;;;;;;8.20;99.90;;;;;;5097405;28;19996;-71
2024/01/03 12:29:15;;;;;;;;;;;8.30;99.90;;;;;;5102756;28;19948;-71
2024/01/03 12:31:42;;;;;;;;;;;8.20;99.90;;;;;;5099776;28;19955;-71
2024/01/03 12:34:08;;;;;;;;;;;8.30;99.90;;;;;;5091955;28;19970;-71
2024/01/03 12:36:35;;;;;;;;;;;8.30;99.90;;;;;;5089919;28;19928;-71
2024/01/03 12:39:03;;;;;;;;;;;8.30;99.90;;;;;;5091506;28;19958;-71
2024/01/03 12:41:30;;;;;;;;;;;8.30;99.90;;;;;;5094994;28;19992;-71
2024/01/03 12:43:56;;;;;;;;;;;8.30;99.90;;;;;;5096864;28;19920;-71
2024/01/03 12:46:23;;;;;;;;;;;8.40;99.90;;;;;;5099027;28;19919;-71
2024/01/03 12:48:50;;;;;;;;;;;8.40;99.90;;;;;;5098809;28;20007;-71
2024/01/03 12:51:17;;;;;;;;;;;8.40;99.90;;;;;;5102770;28;20071;-71
2024/01/03 12:53:44;;;;;;;;;;;8.40;99.90;;;;;;5096689;28;20252;-71
2024/01/03 12:56:12;;;;;;;;;;;8.50;99.90;;;;;;5097876;28;19987;-71
2024/01/03 12:58:39;;;;;;;;;;;8.50;99.90;;;;;;5102400;28;19956;-71
2024/01/03 13:01:05;;;;;;;;;;;8.60;99.90;;;;;;5101623;28;20091;-71
2024/01/03 13:03:32;;;;;;;;;;;8.60;99.90;;;;;;5102222;28;19920;-71
2024/01/03 13:05:58;;;;;;;;;;;8.70;99.90;;;;;;5102658;28;19956;-71
2024/01/03 13:08:25;;;;;;;;;;;8.80;99.90;;;;;;5102037;28;19920;-72
2024/01/03 13:10:53;;;;;;;;;;;8.90;99.90;;;;;;5102271;28;19967;-71
2024/01/03 13:13:21;;;;;;;;;;;9.00;99.90;;;;;;5097412;28;19983;-70
2024/01/03 13:15:50;;;;;;;;;;;9.00;99.90;;;;;;5097871;28;19978;-71
2024/01/03 13:18:17;;;;;;;;;;;9.00;99.90;;;;;;5100938;28;20576;-70
2024/01/03 13:20:43;;;;;;;;;;;9.00;99.90;;;;;;5096068;28;20140;-71
2024/01/03 13:23:10;;;;;;;;;;;9.00;99.90;;;;;;5102020;28;20229;-71
2024/01/03 13:25:36;;;;;;;;;;;9.00;99.90;;;;;;5099841;28;19926;-71
2024/01/03 13:28:03;;;;;;;;;;;9.00;99.90;;;;;;5100692;28;19951;-71
2024/01/03 13:30:31;;;;;;;;;;;9.00;99.90;;;;;;5097476;28;19991;-71
2024/01/03 13:32:58;;;;;;;;;;;9.00;99.90;;;;;;5097303;28;19967;-71
2024/01/03 13:35:24;;;;;;;;;;;9.00;99.90;;;;;;5107056;28;19988;-71
2024/01/03 13:37:51;;;;;;;;;;;9.10;99.90;;;;;;5097143;28;19920;-71
2024/01/03 13:40:18;;;;;;;;;;;9.00;99.90;;;;;;5101979;28;20340;-72
2024/01/03 13:42:44;;;;;;;;;;;9.00;99.90;;;;;;5107881;28;19924;-71
2024/01/03 13:45:11;;;;;;;;;;;9.00;99.90;;;;;;5099434;28;19920;-71
2024/01/03 13:47:39;;;;;;;;;;;9.10;99.90;;;;;;5099574;28;19942;-71
2024/01/03 13:50:06;;;;;;;;;;;9.10;99.90;;;;;;5102231;28;19959;-71
2024/01/03 13:52:34;;;;;;;;;;;9.00;99.90;;;;;;5097079;28;20274;-71
2024/01/03 13:55:01;;;;;;;;;;;9.00;99.90;;;;;;5097473;28;19963;-71
2024/01/03 13:57:28;;;;;;;;;;;9.00;99.90;;;;;;5096358;28;19962;-71
2024/01/03 13:59:55;;;;;;;;;;;8.90;99.90;;;;;;5096986;28;20171;-71
2024/01/03 14:02:21;;;;;;;;;;;8.90;99.90;;;;;;5113136;28;19920;-70
2024/01/03 14:04:49;;;;;;;;;;;8.90;99.90;;;;;;5101246;28;20164;-70
2024/01/03 14:07:17;;;;;;;;;;;8.80;99.90;;;;;;5097126;28;20272;-71
2024/01/03 14:09:43;;;;;;;;;;;8.80;99.90;;;;;;5101284;28;20312;-70
2024/01/03 14:12:10;;;;;;;;;;;8.80;99.90;;;;;;5095562;28;19987;-71
2024/01/03 14:14:37;;;;;;;;;;;8.80;99.90;;;;;;5104131;28;20202;-72
2024/01/03 14:17:04;;;;;;;;;;;8.80;99.90;;;;;;5105590;28;19962;-71
2024/01/03 14:19:31;;;;;;;;;;;8.70;99.90;;;;;;5105463;28;19920;-71
2024/01/03 14:22:01;;;;;;;;;;;8.70;99.90;;;;;;5102292;28;20263;-71
2024/01/03 14:24:27;;;;;;;;;;;8.60;99.90;;;;;;5093078;28;19952;-71
2024/01/03 14:26:54;;;;;;;;;;;8.60;99.90;;;;;;5104342;28;19927;-71
2024/01/03 14:29:21;;;;;;;;;;;8.60;99.90;;;;;;5110757;28;19920;-71
2024/01/03 14:31:47;;;;;;;;;;;8.70;99.90;;;;;;5110061;28;20281;-71